http://www.schuttertalwetter.de (Christian Eisenberg)
Wetterdaten: aktuell Samstag, 22.06.2019 17:30
Datum Zeit Temp. A. Luftdruck Regen Wind Richtung Richtung Sonnenschein Solar Windben
22.06.2019 17:30 20,1 C 1016,1 hPa 0,0 l/m 0,0 km/h (0 Bft) O-SO 112 5 min 251 W/m 3,2 km/h (1 Bft)
22.06.2019 16:30 19,1 C 1016,0 hPa 0,0 l/m 9,7 km/h (2 Bft) S-SO 157 15 min 253 W/m 12,9 km/h (3 Bft)
22.06.2019 15:30 19,1 C 1016,2 hPa 0,0 l/m 4,8 km/h (1 Bft) S-SO 157 0 min 128 W/m 8,0 km/h (2 Bft)
22.06.2019 14:30 19,3 C 1016,4 hPa 0,0 l/m 1,6 km/h (1 Bft) SW 225 0 min 353 W/m 4,8 km/h (1 Bft)
22.06.2019 13:30 19,3 C 1016,5 hPa 0,2 l/m 3,2 km/h (1 Bft) NW 315 10 min 127 W/m 8,0 km/h (2 Bft)
22.06.2019 12:30 19,5 C 1016,5 hPa 0,0 l/m 4,8 km/h (1 Bft) NW 315 50 min 800 W/m 9,7 km/h (2 Bft)
22.06.2019 11:30 16,2 C 1016,6 hPa 0,0 l/m 4,8 km/h (1 Bft) NW 315 0 min 276 W/m 9,7 km/h (2 Bft)
22.06.2019 10:30 15,8 C 1016,6 hPa 0,2 l/m 4,8 km/h (1 Bft) N 360 0 min 378 W/m 9,7 km/h (2 Bft)
22.06.2019 09:30 15,5 C 1016,8 hPa 0,0 l/m 4,8 km/h (1 Bft) N 360 0 min 107 W/m 9,7 km/h (2 Bft)
22.06.2019 08:30 16,1 C 1016,5 hPa 0,0 l/m 4,8 km/h (1 Bft) N 360 0 min 107 W/m 9,7 km/h (2 Bft)
22.06.2019 07:30 16,3 C 1016,8 hPa 0,0 l/m 0,0 km/h (0 Bft) N-NW 337 0 min 37 W/m 3,2 km/h (1 Bft)
22.06.2019 06:30 15,9 C 1016,7 hPa 0,2 l/m 3,2 km/h (1 Bft) W-NW 292 0 min 21 W/m 6,4 km/h (2 Bft)
22.06.2019 05:30 16,3 C 1016,6 hPa 0,0 l/m 0,0 km/h (0 Bft) N-NW 337 0 min 0 W/m 3,2 km/h (1 Bft)
22.06.2019 04:30 16,7 C 1016,9 hPa 1,4 l/m 1,6 km/h (1 Bft) W 270 0 min 0 W/m 3,2 km/h (1 Bft)
22.06.2019 03:30 17,4 C 1017,4 hPa 0,0 l/m 0,0 km/h (0 Bft) W-SW 247 0 min 0 W/m 1,6 km/h (1 Bft)
22.06.2019 02:30 17,4 C 1017,5 hPa 0,0 l/m 3,2 km/h (1 Bft) O-SO 112 0 min 0 W/m 14,5 km/h (3 Bft)
22.06.2019 01:30 17,1 C 1017,8 hPa 0,0 l/m 1,6 km/h (1 Bft) W 270 0 min 0 W/m 4,8 km/h (1 Bft)
22.06.2019 00:30 16,9 C 1018,0 hPa 0,0 l/m 0,0 km/h (0 Bft) N 0 0 min 0 W/m 0,0 km/h (0 Bft)
21.06.2019 23:30 16,8 C 1017,8 hPa 0,0 l/m 0,0 km/h (0 Bft) S-SO 157 0 min 0 W/m 3,2 km/h (1 Bft)
21.06.2019 22:30 18,8 C 1017,8 hPa 0,2 l/m 0,0 km/h (0 Bft) O-SO 112 0 min 0 W/m 1,6 km/h (1 Bft)
21.06.2019 21:30 18,4 C 1017,5 hPa 0,0 l/m 3,2 km/h (1 Bft) S 180 25 min 12 W/m 4,8 km/h (1 Bft)
21.06.2019 20:30 22,3 C 1016,7 hPa 0,0 l/m 0,0 km/h (0 Bft) W-NW 292 0 min 33 W/m 1,6 km/h (1 Bft)
21.06.2019 19:30 23,4 C 1016,3 hPa 0,0 l/m 6,4 km/h (2 Bft) NW 315 0 min 113 W/m 11,3 km/h (2 Bft)
21.06.2019 18:30 24,1 C 1016,1 hPa 0,0 l/m 6,4 km/h (2 Bft) NW 315 0 min 90 W/m 12,9 km/h (3 Bft)
21.06.2019 18:00 24,8 C 1016,2 hPa 0,0 l/m 6,4 km/h (2 Bft) NW 315 0 min 496 W/m 12,9 km/h (3 Bft)
_ Min-Zeit 09:55 16:55 - 17:30 - - - - 04:15
Minimum _ 15,4 C 1016,0 hPa - 0,0 km/h (0 Bft) - - - - 0,0 km/h (0 Bft)
_ Max-Zeit 18:00 00:35 13:25 16:30 - - 17:25 12:05 18:40
Maximum _ 24,8 C 1018,0 hPa 0,2 l/m 9,7 km/h
S-SO (2 Bft)
- - 5 min 1109 W/m 17,7 km/h
NW (3 Bft)
Durchschnitt _ 18,7 C 1016,8 hPa #2,2 l/m 3,3 km/h (1 Bft) NW - #1:20 h 250 W/m 7,3 km/h (2 Bft)